Agua Doce do Norte, Brazil
Current Conditions -  °F | °C
As of 9:00 AM on Saturday 22 Nov 2014 (Local Time) from SBVT Reporting Station
Scattered Clouds Scattered Clouds  
Wind Chill: 79°   Ceiling: Unl
Heat Index: 82°   Visibility: 6mi
Dew Point: 72°   Wind: 13mph
Humidity: 78%   Direction: 30°NNE
Pressure: 29.97"   Gusts: NA
Location:  18.55°S, 40.98°W
Report Text: SBVT 221100Z 03011KT 9999 SCT030 SCT070 26/22 Q1015
Loading
Personal Weather Stations






























Interactive Weather Map New forecast layout! Learn more

10-Day Weather Forecast

Advertisements
Track Severe Weather on mobile